メインページ
METAR-TAF:

METAR-TAF

空港 :

ナンタケット, マサチューセッツ州, アメリカ合衆国

緯度: 41-15-14N, 経度: 070-03-35W, 海抜: 14m

現時点の気象観測

当レポートは20分前の23:53(UTC)に作成
無風
気温 19°C
湿度 88%
気圧 1015 hPa
視程: 16.1km
晴天

METAR: KACK 232353Z 00000KT 10SM CLR 19/17 A2997 RMK AO2 SLP147 6//// T01940167 10233 20194 51006 PNO

時間: 20:13 (00:13 UTC)

予報

当レポートは53分前の23:20(UTC)に作成
予報は24日の 00時(UTC)から 24日の 24時(UTC)まで有効
の風 4kt
視程: 10km
高度12000ftの千切れ雲あり
24日の 0400時(UTC)から
北/北西の風 6kt
視程: 10km
高度12000ftの雲は散在している
24日の 0600時(UTC)から
の風 10kt、最大17ktの突風を伴う
視程: 10km
高度15000ftの雲はほとんどない
24日の 0900時(UTC)から
北/北東の風 13kt、最大19ktの突風を伴う
視程: 10km
高度10000ftの雲はほとんどない
24日の 1200時(UTC)から
北/北東の風 12kt
視程: 10km
高度10000ftの雲はほとんどない
24日の 2200時(UTC)から
北東の風 13kt
視程: 10km
高度25000ftの雲はほとんどない

TAF: KACK 232320Z 2400/2424 36004KT P6SM BKN120 FM240400 34006KT P6SM SCT120 FM240600 36010G17KT P6SM FEW150 FM240900 02013G19KT P6SM FEW100 FM241200 02012KT P6SM FEW100 FM242200 04013KT P6SM FEW250

4,000以上の空港の気象観測と天気予報(METAR報とTAF報)

利用可能な観測所は地図上に黄色い丸と赤い丸で示す。

丸の上にカーソルを重ねると観測所名を参照できる。

次にクリックすると気象観測と天気予報を参照できる。

マップの切り替え:黒色「×」印の緑ボタンをクリックして拡大、「-」印の緑ボタンをクリックして縮小、緑色の三角印をクリックして隣りの地図に切り替え


METAR-TAF: